Ziguinchor, Senegal
Current Conditions -  °F | °C
As of 3:00 AM on Sunday 26 Oct 2014 (Local Time) from GOGG Reporting Station
Clear Clear  
Wind Chill: 79°   Ceiling: Unl
Heat Index: 83°   Visibility: 5mi
Dew Point: 77°   Wind: 0mph
Humidity: 94%   Direction: NA
Pressure: 29.88"   Gusts: NA
Location:  12.59°N, 16.29°W
Report Text: GOGG 260300Z 00000KT 8000 NSC 26/25 Q1012
Loading
Personal Weather Stations






























Interactive Weather Map New forecast layout! Learn more

10-Day Weather Forecast

Advertisements
Track Severe Weather on mobile